Time;durP1;ratioP1;P1;durP2;ratioP2;P2;SDS_P1;SDS_P2;PMS_P1;PMS_P2;Temp;Humidity;BMP_temperature;BMP_pressure;BME280_temperature;BME280_humidity;BME280_pressure;Samples;Min_cycle;Max_cycle;Signal;HPM_P1;HPM_P2
2023/07/21 00:00:52;;;;;;;10.48;7.63;;;;;;;;;;8354069;28;20488;-86
2023/07/21 00:05:15;;;;;;;12.75;8.68;;;;;;;;;;8356584;28;20037;-87
2023/07/21 00:09:18;;;;;;;11.30;7.97;;;;;;;;;;8357402;28;20057;-87
2023/07/21 00:13:22;;;;;;;13.25;8.55;;;;;;;;;;8356325;28;20613;-88
2023/07/21 00:17:25;;;;;;;11.95;7.28;;;;;;;;;;8357060;28;20048;-86
2023/07/21 00:21:30;;;;;;;8.43;6.35;;;;;;;;;;8353117;28;20120;-87
2023/07/21 00:25:34;;;;;;;8.43;6.07;;;;;;;;;;8355072;28;20526;-87
2023/07/21 00:29:37;;;;;;;10.20;6.93;;;;;;;;;;8354181;28;20057;-86
2023/07/21 00:33:40;;;;;;;9.98;7.00;;;;;;;;;;8356277;28;20702;-87
2023/07/21 00:37:46;;;;;;;9.23;5.93;;;;;;;;;;8339683;28;20057;-87
2023/07/21 00:41:55;;;;;;;8.55;7.00;;;;;;;;;;8337766;28;20128;-87
2023/07/21 00:45:59;;;;;;;10.38;7.38;;;;;;;;;;8356818;28;20048;-86
2023/07/21 00:50:02;;;;;;;11.32;7.88;;;;;;;;;;8356278;28;20075;-86
2023/07/21 00:54:06;;;;;;;11.00;7.93;;;;;;;;;;8357017;28;20092;-85
2023/07/21 00:58:09;;;;;;;10.15;7.28;;;;;;;;;;8356262;28;20049;-87
2023/07/21 01:02:13;;;;;;;11.10;7.53;;;;;;;;;;8354854;28;20094;-86
2023/07/21 01:06:16;;;;;;;10.95;7.40;;;;;;;;;;8348745;28;20053;-86
2023/07/21 01:10:21;;;;;;;10.23;7.43;;;;;;;;;;8355001;28;20045;-87
2023/07/21 01:14:24;;;;;;;13.90;8.13;;;;;;;;;;8354084;28;20647;-86
2023/07/21 01:18:28;;;;;;;12.05;8.38;;;;;;;;;;8355427;28;20045;-85
2023/07/21 01:22:36;;;;;;;9.73;6.85;;;;;;;;;;8347257;28;20150;-87
2023/07/21 01:26:43;;;;;;;8.75;6.90;;;;;;;;;;8359717;28;20481;-86
2023/07/21 01:30:48;;;;;;;11.70;8.65;;;;;;;;;;8360594;28;20457;-87
2023/07/21 01:34:51;;;;;;;11.80;8.13;;;;;;;;;;8361332;28;20053;-86
2023/07/21 01:38:55;;;;;;;12.65;9.15;;;;;;;;;;8360537;28;20535;-87
2023/07/21 01:42:59;;;;;;;11.70;8.63;;;;;;;;;;8361911;28;20044;-87
2023/07/21 01:47:04;;;;;;;12.80;7.65;;;;;;;;;;8379481;28;20052;-86
2023/07/21 01:51:07;;;;;;;14.38;8.32;;;;;;;;;;8362542;28;20118;-86
2023/07/21 01:55:15;;;;;;;11.18;7.53;;;;;;;;;;8396524;27;20416;-87
2023/07/21 01:59:22;;;;;;;8.80;7.63;;;;;;;;;;8393290;28;20053;-86
2023/07/21 02:03:26;;;;;;;8.80;6.80;;;;;;;;;;8365975;28;20081;-87
2023/07/21 02:07:29;;;;;;;9.70;7.50;;;;;;;;;;8361848;28;20045;-87
2023/07/21 02:11:32;;;;;;;10.25;7.45;;;;;;;;;;8360563;28;20116;-88
2023/07/21 02:15:36;;;;;;;9.65;7.35;;;;;;;;;;8359400;28;20041;-88
2023/07/21 02:19:39;;;;;;;10.15;8.75;;;;;;;;;;8348367;28;20065;-87
2023/07/21 02:23:42;;;;;;;13.35;9.00;;;;;;;;;;8351089;28;20052;-87
2023/07/21 02:27:45;;;;;;;12.35;8.93;;;;;;;;;;8344279;28;20052;-87
2023/07/21 02:31:50;;;;;;;11.40;7.95;;;;;;;;;;8327377;28;20186;-86
2023/07/21 02:35:53;;;;;;;12.30;7.93;;;;;;;;;;8354349;28;20472;-86
2023/07/21 02:39:57;;;;;;;9.20;6.75;;;;;;;;;;8340686;28;20038;-86
2023/07/21 02:44:00;;;;;;;9.52;6.20;;;;;;;;;;8339530;28;20055;-86
2023/07/21 02:48:07;;;;;;;12.32;6.97;;;;;;;;;;8327590;28;20053;-87
2023/07/21 02:52:10;;;;;;;11.18;7.45;;;;;;;;;;8327960;28;20487;-87
2023/07/21 02:56:15;;;;;;;12.05;7.97;;;;;;;;;;8347888;28;20045;-87
2023/07/21 03:00:18;;;;;;;10.38;7.68;;;;;;;;;;8358793;28;20048;-86
2023/07/21 03:04:23;;;;;;;11.50;7.78;;;;;;;;;;8327267;28;20155;-87
2023/07/21 03:08:28;;;;;;;9.57;7.03;;;;;;;;;;8327846;28;20046;-86
2023/07/21 03:12:31;;;;;;;11.88;8.10;;;;;;;;;;8338543;28;20533;-87
2023/07/21 03:16:34;;;;;;;11.57;8.15;;;;;;;;;;8326841;28;20046;-87
2023/07/21 03:20:38;;;;;;;10.70;7.72;;;;;;;;;;8326601;28;20064;-86
2023/07/21 03:24:41;;;;;;;10.15;8.82;;;;;;;;;;8341487;28;20487;-87
2023/07/21 03:28:44;;;;;;;11.85;8.35;;;;;;;;;;8350967;28;20136;-86
2023/07/21 03:32:47;;;;;;;10.93;7.32;;;;;;;;;;8353220;28;20057;-86
2023/07/21 03:36:51;;;;;;;11.93;8.23;;;;;;;;;;8337811;28;20128;-87
2023/07/21 03:41:00;;;;;;;10.32;7.60;;;;;;;;;;8326292;28;20125;-87
2023/07/21 03:45:05;;;;;;;8.20;6.50;;;;;;;;;;8325842;28;20157;-86
2023/07/21 03:49:11;;;;;;;8.40;6.20;;;;;;;;;;8324663;28;20132;-87
2023/07/21 03:53:16;;;;;;;10.82;8.55;;;;;;;;;;8341369;28;20056;-87
2023/07/21 03:57:20;;;;;;;10.60;9.20;;;;;;;;;;8325538;28;20050;-87
2023/07/21 04:01:23;;;;;;;10.02;8.90;;;;;;;;;;8338598;28;20136;-87
2023/07/21 04:05:26;;;;;;;9.10;8.13;;;;;;;;;;8355240;28;20056;-87
2023/07/21 04:09:30;;;;;;;10.18;7.90;;;;;;;;;;8348697;28;20057;-88
2023/07/21 04:13:34;;;;;;;9.13;6.60;;;;;;;;;;8325535;28;20041;-87
2023/07/21 04:17:36;;;;;;;7.65;6.30;;;;;;;;;;8325256;28;20132;-87
2023/07/21 04:21:39;;;;;;;9.30;6.07;;;;;;;;;;8341537;28;20045;-87
2023/07/21 04:25:44;;;;;;;8.68;5.63;;;;;;;;;;8358108;28;20060;-87
2023/07/21 04:29:46;;;;;;;12.98;11.00;;;;;;;;;;8340850;28;20412;-87
2023/07/21 04:33:50;;;;;;;15.23;12.60;;;;;;;;;;8325076;28;20058;-87
2023/07/21 04:37:55;;;;;;;7.22;5.70;;;;;;;;;;8325275;28;20450;-87
2023/07/21 04:42:00;;;;;;;10.05;5.57;;;;;;;;;;8340460;28;20048;-87
2023/07/21 04:46:04;;;;;;;8.10;6.78;;;;;;;;;;8325399;28;20045;-87
2023/07/21 04:50:08;;;;;;;7.43;5.13;;;;;;;;;;8324858;28;20133;-87
2023/07/21 04:54:12;;;;;;;6.15;5.30;;;;;;;;;;8307684;28;20062;-87
2023/07/21 04:58:20;;;;;;;9.48;5.45;;;;;;;;;;8334846;28;20049;-86
2023/07/21 05:02:25;;;;;;;8.07;5.68;;;;;;;;;;8340194;28;20069;-87
2023/07/21 05:06:28;;;;;;;7.60;4.88;;;;;;;;;;8337422;28;20214;-86
2023/07/21 05:10:32;;;;;;;6.30;5.13;;;;;;;;;;8340611;28;20045;-87
2023/07/21 05:14:37;;;;;;;12.10;5.57;;;;;;;;;;8330324;28;20386;-86
2023/07/21 05:18:39;;;;;;;6.35;4.60;;;;;;;;;;8328518;28;20052;-87
2023/07/21 05:22:42;;;;;;;8.43;4.13;;;;;;;;;;8355259;28;20552;-85
2023/07/21 05:26:48;;;;;;;13.15;6.88;;;;;;;;;;8331499;28;20057;-87
2023/07/21 05:30:54;;;;;;;7.75;3.88;;;;;;;;;;8345009;28;20080;-87
2023/07/21 05:34:57;;;;;;;6.40;5.00;;;;;;;;;;8312678;28;20065;-87
2023/07/21 05:39:00;;;;;;;13.27;4.00;;;;;;;;;;8330231;28;20045;-86
2023/07/21 05:43:05;;;;;;;8.43;4.40;;;;;;;;;;8348634;28;20072;-87
2023/07/21 05:47:09;;;;;;;10.18;3.70;;;;;;;;;;8334765;28;20045;-88
2023/07/21 05:51:16;;;;;;;8.82;3.40;;;;;;;;;;8327455;28;20057;-87
2023/07/21 05:55:19;;;;;;;7.13;2.97;;;;;;;;;;8337039;28;20552;-86
2023/07/21 05:59:22;;;;;;;7.90;3.40;;;;;;;;;;8326584;28;20049;-88
2023/07/21 06:03:28;;;;;;;4.90;3.00;;;;;;;;;;8330163;28;20174;-87
2023/07/21 06:07:31;;;;;;;7.00;3.58;;;;;;;;;;8348347;28;20049;-87
2023/07/21 06:11:33;;;;;;;6.78;2.90;;;;;;;;;;8361282;28;20487;-88
2023/07/21 06:15:36;;;;;;;6.55;3.10;;;;;;;;;;8336052;28;20516;-88
2023/07/21 06:19:41;;;;;;;5.22;2.80;;;;;;;;;;8361468;28;20116;-88
2023/07/21 06:23:44;;;;;;;5.13;2.50;;;;;;;;;;8338964;28;20090;-88
2023/07/21 06:27:48;;;;;;;5.28;2.60;;;;;;;;;;8327802;28;20084;-90
2023/07/21 06:31:51;;;;;;;3.28;2.47;;;;;;;;;;8341327;28;20092;-88
2023/07/21 06:35:55;;;;;;;5.85;3.08;;;;;;;;;;8341592;28;20060;-90
2023/07/21 06:39:58;;;;;;;4.43;2.47;;;;;;;;;;8340572;28;20052;-89
2023/07/21 06:44:01;;;;;;;7.15;2.90;;;;;;;;;;8327503;28;20125;-90
2023/07/21 06:48:06;;;;;;;4.53;2.53;;;;;;;;;;8327660;28;20088;-88
2023/07/21 06:52:10;;;;;;;7.53;3.58;;;;;;;;;;8337277;28;20072;-86
2023/07/21 06:56:13;;;;;;;7.50;3.25;;;;;;;;;;8326560;28;20049;-90
2023/07/21 07:00:16;;;;;;;6.57;3.03;;;;;;;;;;8338181;28;20052;-88
2023/07/21 07:04:21;;;;;;;3.85;2.75;;;;;;;;;;8324927;28;20516;-89
2023/07/21 07:08:25;;;;;;;5.03;2.80;;;;;;;;;;8325636;28;20077;-88
2023/07/21 07:12:28;;;;;;;8.38;3.50;;;;;;;;;;8325455;28;20526;-88
2023/07/21 07:16:31;;;;;;;9.20;3.20;;;;;;;;;;8326157;28;20045;-89
2023/07/21 07:20:34;;;;;;;4.50;3.20;;;;;;;;;;8326137;28;20051;-89
2023/07/21 07:24:38;;;;;;;5.72;3.67;;;;;;;;;;8338153;28;20046;-88
2023/07/21 07:28:41;;;;;;;7.35;3.78;;;;;;;;;;8337125;28;20053;-88
2023/07/21 07:32:44;;;;;;;6.75;3.20;;;;;;;;;;8329529;28;20081;-89
2023/07/21 07:36:48;;;;;;;7.78;3.55;;;;;;;;;;8326008;28;20473;-89
2023/07/21 07:40:52;;;;;;;7.03;3.30;;;;;;;;;;8308782;28;20431;-89
2023/07/21 07:44:58;;;;;;;4.72;2.97;;;;;;;;;;8337501;28;20045;-90
2023/07/21 07:49:01;;;;;;;5.15;2.72;;;;;;;;;;8344169;28;20147;-87
2023/07/21 07:53:04;;;;;;;8.55;3.13;;;;;;;;;;8323439;28;20041;-87
2023/07/21 07:57:09;;;;;;;4.80;2.85;;;;;;;;;;8331726;28;20045;-89
2023/07/21 08:01:13;;;;;;;8.13;3.42;;;;;;;;;;8337286;28;20076;-90
2023/07/21 08:05:15;;;;;;;3.65;3.00;;;;;;;;;;8331762;28;20116;-92
2023/07/21 08:09:18;;;;;;;3.65;2.83;;;;;;;;;;8345731;28;20098;-90
2023/07/21 08:13:23;;;;;;;5.38;2.88;;;;;;;;;;8339305;28;20041;-91
2023/07/21 08:17:26;;;;;;;4.43;3.00;;;;;;;;;;8350983;28;20144;-90
2023/07/21 08:21:29;;;;;;;4.63;2.50;;;;;;;;;;8351161;28;20043;-92
2023/07/21 08:25:32;;;;;;;3.80;2.60;;;;;;;;;;8328939;28;20049;-91
2023/07/21 08:29:35;;;;;;;4.18;2.65;;;;;;;;;;8308729;28;20051;-86
2023/07/21 08:33:38;;;;;;;4.57;2.58;;;;;;;;;;8335832;28;20501;-91
2023/07/21 08:37:42;;;;;;;6.15;2.70;;;;;;;;;;8339446;28;20508;-92
2023/07/21 08:41:46;;;;;;;5.45;2.80;;;;;;;;;;8335882;28;20064;-91
2023/07/21 08:45:51;;;;;;;4.35;2.78;;;;;;;;;;8326497;28;20405;-89
2023/07/21 08:49:54;;;;;;;6.18;2.40;;;;;;;;;;8335986;28;20119;-86
2023/07/21 08:53:58;;;;;;;5.40;2.70;;;;;;;;;;8339407;28;20144;-89
2023/07/21 08:58:06;;;;;;;3.92;2.58;;;;;;;;;;8334015;28;20061;-91
2023/07/21 09:02:10;;;;;;;6.05;2.65;;;;;;;;;;8337535;28;20504;-88
2023/07/21 09:06:14;;;;;;;5.75;2.58;;;;;;;;;;8334049;28;20093;-89
2023/07/21 09:10:29;;;;;;;3.92;2.38;;;;;;;;;;8352918;28;20045;-87
2023/07/21 09:14:37;;;;;;;5.32;2.45;;;;;;;;;;8348903;28;20127;-92
2023/07/21 09:18:43;;;;;;;5.00;2.38;;;;;;;;;;8337410;28;20045;-89
2023/07/21 09:22:48;;;;;;;4.18;2.33;;;;;;;;;;8323944;28;20133;-89
2023/07/21 09:26:51;;;;;;;3.88;2.42;;;;;;;;;;8356124;28;20045;-86
2023/07/21 09:30:54;;;;;;;4.78;2.25;;;;;;;;;;8330857;28;20073;-87
2023/07/21 09:35:00;;;;;;;4.78;2.20;;;;;;;;;;8323329;28;20144;-87
2023/07/21 09:39:04;;;;;;;5.10;2.92;;;;;;;;;;8333164;28;20480;-91
2023/07/21 09:43:08;;;;;;;7.25;2.60;;;;;;;;;;8340723;28;20467;-92
2023/07/21 09:47:11;;;;;;;4.63;2.47;;;;;;;;;;8345724;28;20079;-88
2023/07/21 09:51:19;;;;;;;2.58;2.17;;;;;;;;;;8343615;28;20140;-90
2023/07/21 09:55:24;;;;;;;3.47;2.22;;;;;;;;;;8334494;28;20072;-90
2023/07/21 09:59:29;;;;;;;5.53;2.40;;;;;;;;;;8354269;28;20124;-88
2023/07/21 10:03:34;;;;;;;2.78;2.03;;;;;;;;;;8361017;28;20047;-91
2023/07/21 10:07:41;;;;;;;3.92;2.03;;;;;;;;;;8334857;28;20083;-88
2023/07/21 10:11:44;;;;;;;3.53;2.00;;;;;;;;;;8326792;28;20161;-91
2023/07/21 10:15:48;;;;;;;6.15;2.00;;;;;;;;;;8327645;28;20053;-91
2023/07/21 10:20:07;;;;;;;2.00;1.90;;;;;;;;;;8343586;28;20579;-89
2023/07/21 10:24:23;;;;;;;2.42;2.00;;;;;;;;;;8346345;28;20474;-91
2023/07/21 10:28:33;;;;;;;3.65;2.20;;;;;;;;;;8357266;28;20453;-92
2023/07/21 10:32:42;;;;;;;2.92;2.08;;;;;;;;;;8356356;28;20056;-87
2023/07/21 10:36:49;;;;;;;2.25;2.05;;;;;;;;;;8345643;28;20117;-92
2023/07/21 10:40:53;;;;;;;3.30;2.35;;;;;;;;;;8341347;28;20489;-88
2023/07/21 10:44:56;;;;;;;3.80;2.25;;;;;;;;;;8335282;28;20545;-89
2023/07/21 10:49:01;;;;;;;4.22;2.20;;;;;;;;;;8356990;28;20078;-89
2023/07/21 10:53:05;;;;;;;2.22;1.80;;;;;;;;;;8358701;28;20136;-87
2023/07/21 10:57:10;;;;;;;3.03;1.80;;;;;;;;;;8357710;28;20041;-91
2023/07/21 11:01:12;;;;;;;2.22;1.80;;;;;;;;;;8345511;28;20536;-90
2023/07/21 11:05:17;;;;;;;1.88;1.70;;;;;;;;;;8357392;27;20105;-91
2023/07/21 11:09:21;;;;;;;3.88;1.80;;;;;;;;;;8347483;28;20048;-91
2023/07/21 11:13:27;;;;;;;2.28;1.80;;;;;;;;;;8345849;28;20483;-90
2023/07/21 11:17:33;;;;;;;4.55;1.60;;;;;;;;;;8338108;28;20072;-88
2023/07/21 11:21:36;;;;;;;2.55;1.77;;;;;;;;;;8348156;28;20049;-89
2023/07/21 11:25:38;;;;;;;3.20;2.00;;;;;;;;;;8350362;28;20051;-90
2023/07/21 11:29:43;;;;;;;4.63;1.90;;;;;;;;;;8345795;28;20095;-90
2023/07/21 11:33:48;;;;;;;2.63;2.00;;;;;;;;;;8349217;28;20061;-89
2023/07/21 11:37:51;;;;;;;2.70;2.05;;;;;;;;;;8340940;28;20485;-88
2023/07/21 11:41:55;;;;;;;2.38;2.00;;;;;;;;;;8350699;28;20161;-90
2023/07/21 11:46:00;;;;;;;4.05;2.10;;;;;;;;;;8345535;28;20050;-89
2023/07/21 11:50:05;;;;;;;2.55;2.00;;;;;;;;;;8350746;28;20067;-89
2023/07/21 11:54:19;;;;;;;2.67;2.20;;;;;;;;;;8340744;28;20070;-89
2023/07/21 11:58:22;;;;;;;4.65;2.20;;;;;;;;;;8350620;28;20052;-90
2023/07/21 12:02:27;;;;;;;4.43;2.38;;;;;;;;;;8352131;28;20037;-88
2023/07/21 12:06:30;;;;;;;2.30;2.10;;;;;;;;;;8347139;28;20086;-88
2023/07/21 12:10:33;;;;;;;5.10;2.20;;;;;;;;;;8347346;28;20045;-88
2023/07/21 12:14:36;;;;;;;5.70;2.10;;;;;;;;;;8349440;28;20124;-89
2023/07/21 12:18:42;;;;;;;3.22;2.00;;;;;;;;;;8334981;28;20525;-89
2023/07/21 12:22:45;;;;;;;3.38;2.38;;;;;;;;;;8349378;28;20053;-90
2023/07/21 12:26:48;;;;;;;2.65;2.30;;;;;;;;;;8342922;28;20071;-88
2023/07/21 12:30:51;;;;;;;2.38;2.17;;;;;;;;;;8342285;28;20071;-90
2023/07/21 12:34:55;;;;;;;2.60;2.15;;;;;;;;;;8349373;28;20084;-90
2023/07/21 12:38:58;;;;;;;3.97;2.40;;;;;;;;;;8348166;28;20499;-88
2023/07/21 12:43:01;;;;;;;2.90;2.50;;;;;;;;;;8329489;28;20457;-90
2023/07/21 12:47:07;;;;;;;5.05;2.38;;;;;;;;;;8330652;28;20044;-89
2023/07/21 12:51:11;;;;;;;2.33;2.13;;;;;;;;;;8343240;28;20133;-89
2023/07/21 12:55:13;;;;;;;2.90;2.28;;;;;;;;;;8319497;28;20442;-89
2023/07/21 12:59:16;;;;;;;5.68;2.78;;;;;;;;;;8323828;28;20493;-88
2023/07/21 13:03:20;;;;;;;3.13;2.60;;;;;;;;;;8323962;28;20041;-89
2023/07/21 13:07:24;;;;;;;2.78;2.13;;;;;;;;;;8323912;28;20155;-89
2023/07/21 13:11:27;;;;;;;4.13;2.40;;;;;;;;;;8323996;28;20046;-89
2023/07/21 13:15:31;;;;;;;3.13;2.50;;;;;;;;;;8306595;28;20049;-89
2023/07/21 13:19:34;;;;;;;4.90;2.90;;;;;;;;;;8324088;28;20382;-89
2023/07/21 13:23:38;;;;;;;4.47;2.47;;;;;;;;;;8328452;28;20492;-89
2023/07/21 13:27:41;;;;;;;3.10;2.40;;;;;;;;;;8329873;28;20053;-89
2023/07/21 13:31:44;;;;;;;2.85;2.30;;;;;;;;;;8342659;28;20062;-89
2023/07/21 13:35:49;;;;;;;3.67;2.40;;;;;;;;;;8328123;28;20128;-88
2023/07/21 13:39:54;;;;;;;4.13;2.90;;;;;;;;;;8347771;28;20063;-89
2023/07/21 13:43:58;;;;;;;4.72;3.00;;;;;;;;;;8360201;28;20117;-90
2023/07/21 13:48:01;;;;;;;4.47;2.80;;;;;;;;;;8355562;28;20048;-89
2023/07/21 13:52:05;;;;;;;2.95;2.55;;;;;;;;;;8358515;28;20132;-89
2023/07/21 13:56:10;;;;;;;4.60;2.60;;;;;;;;;;8352049;28;20124;-88
2023/07/21 14:00:21;;;;;;;3.75;2.63;;;;;;;;;;8341858;28;20049;-90
2023/07/21 14:04:24;;;;;;;4.80;2.45;;;;;;;;;;8352195;28;20045;-89
2023/07/21 14:08:28;;;;;;;4.25;2.63;;;;;;;;;;8342277;28;20120;-91
2023/07/21 14:12:33;;;;;;;5.53;2.80;;;;;;;;;;8341045;28;20614;-89
2023/07/21 14:16:36;;;;;;;4.03;2.50;;;;;;;;;;8347852;28;20407;-89
2023/07/21 14:20:39;;;;;;;3.67;2.90;;;;;;;;;;8355258;28;20104;-90
2023/07/21 14:24:43;;;;;;;4.50;2.65;;;;;;;;;;8349056;28;20053;-90
2023/07/21 14:28:48;;;;;;;4.85;3.03;;;;;;;;;;8350438;28;20493;-90
2023/07/21 14:32:52;;;;;;;3.55;2.60;;;;;;;;;;8352224;28;20061;-91
2023/07/21 14:36:56;;;;;;;3.10;2.65;;;;;;;;;;8304409;28;20060;-89
2023/07/21 14:40:59;;;;;;;3.65;2.67;;;;;;;;;;8340850;28;20127;-90
2023/07/21 14:45:04;;;;;;;4.75;2.55;;;;;;;;;;8348759;28;20098;-89
2023/07/21 14:49:07;;;;;;;3.63;2.42;;;;;;;;;;8351639;28;20469;-88
2023/07/21 14:53:14;;;;;;;3.33;2.50;;;;;;;;;;8345360;28;20084;-87
2023/07/21 14:57:17;;;;;;;3.53;2.58;;;;;;;;;;8354000;28;20381;-89
2023/07/21 15:01:30;;;;;;;3.33;2.55;;;;;;;;;;8328928;28;20511;-88
2023/07/21 15:05:35;;;;;;;2.92;2.58;;;;;;;;;;8343191;28;20048;-86
2023/07/21 15:09:43;;;;;;;3.42;2.60;;;;;;;;;;8342159;28;20080;-89
2023/07/21 15:13:46;;;;;;;3.10;2.40;;;;;;;;;;8344160;28;20060;-88
2023/07/21 15:17:52;;;;;;;6.57;2.65;;;;;;;;;;8324110;28;20400;-86
2023/07/21 15:21:56;;;;;;;5.15;2.72;;;;;;;;;;8344046;28;20752;-90
2023/07/21 15:25:59;;;;;;;4.07;2.78;;;;;;;;;;8338849;28;20057;-89
2023/07/21 15:30:02;;;;;;;3.78;2.67;;;;;;;;;;8353343;28;20049;-89
2023/07/21 15:34:06;;;;;;;3.72;2.58;;;;;;;;;;8340576;28;20053;-89
2023/07/21 15:38:09;;;;;;;4.13;3.00;;;;;;;;;;8347425;28;20083;-90
2023/07/21 15:42:12;;;;;;;4.55;2.40;;;;;;;;;;8347918;28;20510;-89
2023/07/21 15:46:16;;;;;;;3.30;2.63;;;;;;;;;;8350841;28;20078;-91
2023/07/21 15:50:20;;;;;;;3.90;2.40;;;;;;;;;;8335927;28;20041;-90
2023/07/21 15:54:23;;;;;;;5.18;2.42;;;;;;;;;;8343863;28;20065;-90
2023/07/21 15:58:27;;;;;;;4.32;2.22;;;;;;;;;;8353412;28;20135;-89
2023/07/21 16:02:30;;;;;;;3.78;2.28;;;;;;;;;;8353772;28;20053;-89
2023/07/21 16:06:34;;;;;;;3.47;2.60;;;;;;;;;;8352058;28;20144;-88
2023/07/21 16:10:37;;;;;;;3.70;2.40;;;;;;;;;;8348977;28;20477;-88
2023/07/21 16:14:44;;;;;;;3.85;2.08;;;;;;;;;;8334549;28;20061;-88
2023/07/21 16:18:48;;;;;;;4.70;2.38;;;;;;;;;;8322768;28;20051;-87
2023/07/21 16:22:53;;;;;;;3.67;2.40;;;;;;;;;;8325234;28;20552;-89
2023/07/21 16:26:56;;;;;;;7.07;2.38;;;;;;;;;;8348550;28;20128;-88
2023/07/21 16:31:00;;;;;;;2.40;2.20;;;;;;;;;;8325067;28;20121;-88
2023/07/21 16:35:03;;;;;;;3.78;2.60;;;;;;;;;;8333449;28;20088;-88
2023/07/21 16:39:09;;;;;;;3.65;2.28;;;;;;;;;;8324392;28;20481;-89
2023/07/21 16:43:13;;;;;;;2.72;2.20;;;;;;;;;;8331805;28;20072;-89
2023/07/21 16:47:15;;;;;;;4.00;2.25;;;;;;;;;;8352783;28;20049;-88
2023/07/21 16:51:19;;;;;;;3.00;2.35;;;;;;;;;;8351831;28;20051;-90
2023/07/21 16:55:25;;;;;;;4.05;2.38;;;;;;;;;;8345685;28;20041;-90
2023/07/21 16:59:29;;;;;;;3.50;2.42;;;;;;;;;;8357577;28;20041;-86
2023/07/21 17:03:34;;;;;;;3.38;2.28;;;;;;;;;;8351491;28;20041;-89
2023/07/21 17:07:38;;;;;;;2.88;2.20;;;;;;;;;;8326947;28;20041;-89
2023/07/21 17:11:42;;;;;;;4.40;2.20;;;;;;;;;;8350913;28;20051;-90
2023/07/21 17:15:46;;;;;;;7.70;2.70;;;;;;;;;;8352662;28;20454;-89
2023/07/21 17:19:50;;;;;;;3.65;2.40;;;;;;;;;;8357203;28;20056;-89
2023/07/21 17:23:54;;;;;;;4.43;2.38;;;;;;;;;;8347753;28;20045;-89
2023/07/21 17:28:01;;;;;;;4.07;2.30;;;;;;;;;;8357128;28;20147;-88
2023/07/21 17:32:06;;;;;;;3.38;2.20;;;;;;;;;;8351056;28;20495;-90
2023/07/21 17:36:10;;;;;;;6.18;2.28;;;;;;;;;;8355869;28;20047;-90
2023/07/21 17:40:14;;;;;;;5.32;2.20;;;;;;;;;;8337371;28;20049;-89
2023/07/21 17:44:21;;;;;;;6.28;2.55;;;;;;;;;;8345853;28;20797;-89
2023/07/21 17:48:25;;;;;;;5.15;2.60;;;;;;;;;;8353750;28;20479;-89
2023/07/21 17:52:28;;;;;;;5.07;3.00;;;;;;;;;;8353613;28;20081;-90
2023/07/21 17:56:31;;;;;;;4.50;2.38;;;;;;;;;;8346151;28;20134;-90
2023/07/21 18:00:40;;;;;;;4.90;2.80;;;;;;;;;;8354709;28;20080;-91
2023/07/21 18:04:44;;;;;;;6.90;2.65;;;;;;;;;;8349983;28;20053;-90
2023/07/21 18:08:48;;;;;;;4.15;2.50;;;;;;;;;;8354418;28;20049;-90
2023/07/21 18:12:53;;;;;;;5.63;3.88;;;;;;;;;;8354764;28;20084;-89
2023/07/21 18:16:58;;;;;;;6.25;3.80;;;;;;;;;;8343735;28;20516;-88
2023/07/21 18:21:05;;;;;;;6.97;4.43;;;;;;;;;;8351866;28;20079;-88
2023/07/21 18:25:10;;;;;;;8.60;4.18;;;;;;;;;;8330718;28;20049;-90
2023/07/21 18:29:15;;;;;;;7.03;4.13;;;;;;;;;;8352289;28;20575;-88
2023/07/21 18:33:20;;;;;;;4.82;3.47;;;;;;;;;;8329383;28;20049;-89
2023/07/21 18:37:24;;;;;;;7.90;3.83;;;;;;;;;;8355587;28;20068;-91
2023/07/21 18:41:28;;;;;;;7.82;4.63;;;;;;;;;;8358587;28;20076;-87
2023/07/21 18:45:32;;;;;;;7.75;4.20;;;;;;;;;;8360000;28;20049;-90
2023/07/21 18:49:38;;;;;;;8.23;4.70;;;;;;;;;;8359486;28;20049;-87
2023/07/21 18:53:42;;;;;;;6.80;4.65;;;;;;;;;;8353115;28;20057;-89
2023/07/21 18:57:47;;;;;;;9.13;4.75;;;;;;;;;;8358909;28;20573;-85
2023/07/21 19:01:51;;;;;;;16.83;9.38;;;;;;;;;;8355547;28;20041;-87
2023/07/21 19:05:58;;;;;;;5.80;3.85;;;;;;;;;;8356446;28;20045;-90
2023/07/21 19:10:04;;;;;;;5.07;3.75;;;;;;;;;;8329963;28;20142;-90
2023/07/21 19:14:07;;;;;;;5.18;3.50;;;;;;;;;;8327613;28;20134;-89
2023/07/21 19:18:12;;;;;;;11.43;4.35;;;;;;;;;;8326720;28;20053;-89
2023/07/21 19:22:17;;;;;;;8.40;4.50;;;;;;;;;;8348348;28;20045;-89
2023/07/21 19:26:21;;;;;;;6.95;4.75;;;;;;;;;;8326213;28;20042;-89
2023/07/21 19:30:24;;;;;;;9.35;5.57;;;;;;;;;;8346380;28;20073;-88
2023/07/21 19:34:30;;;;;;;10.02;5.07;;;;;;;;;;8330560;28;20136;-88
2023/07/21 19:38:36;;;;;;;7.63;5.15;;;;;;;;;;8348232;28;20164;-87
2023/07/21 19:42:40;;;;;;;15.43;6.07;;;;;;;;;;8356110;28;20214;-89
2023/07/21 19:46:44;;;;;;;10.20;5.30;;;;;;;;;;8348925;28;20135;-88
2023/07/21 19:50:48;;;;;;;7.13;4.72;;;;;;;;;;8347322;28;20044;-89
2023/07/21 19:54:54;;;;;;;6.90;4.07;;;;;;;;;;8332186;28;20137;-89
2023/07/21 19:58:56;;;;;;;7.10;4.43;;;;;;;;;;8307915;28;20120;-89
2023/07/21 20:02:59;;;;;;;8.80;5.22;;;;;;;;;;8325460;28;20496;-88
2023/07/21 20:07:02;;;;;;;9.27;4.78;;;;;;;;;;8338947;28;20392;-88
2023/07/21 20:11:07;;;;;;;8.38;4.97;;;;;;;;;;8325150;28;20164;-87
2023/07/21 20:15:12;;;;;;;8.35;5.03;;;;;;;;;;8325350;28;20048;-86
2023/07/21 20:19:23;;;;;;;8.27;4.80;;;;;;;;;;8325192;28;20144;-88
2023/07/21 20:23:27;;;;;;;7.07;5.03;;;;;;;;;;8324834;28;20150;-88
2023/07/21 20:27:31;;;;;;;8.57;4.85;;;;;;;;;;8325262;28;20101;-89
2023/07/21 20:31:34;;;;;;;7.07;5.25;;;;;;;;;;8324048;28;20474;-88
2023/07/21 20:35:41;;;;;;;7.53;5.00;;;;;;;;;;8325111;28;20050;-89
2023/07/21 20:39:44;;;;;;;8.10;4.82;;;;;;;;;;8338430;28;20537;-88
2023/07/21 20:43:48;;;;;;;7.20;4.78;;;;;;;;;;8336207;28;20485;-88
2023/07/21 20:47:51;;;;;;;6.85;4.63;;;;;;;;;;8339504;28;20050;-88
2023/07/21 20:51:55;;;;;;;8.00;5.05;;;;;;;;;;8337521;28;20077;-87
2023/07/21 20:56:00;;;;;;;9.00;6.45;;;;;;;;;;8324288;28;20053;-87
2023/07/21 21:00:11;;;;;;;9.52;6.70;;;;;;;;;;8349278;28;20145;-88
2023/07/21 21:04:15;;;;;;;11.52;5.70;;;;;;;;;;8330533;28;20477;-88
2023/07/21 21:08:18;;;;;;;8.00;5.43;;;;;;;;;;8351893;28;20123;-87
2023/07/21 21:12:21;;;;;;;9.48;5.30;;;;;;;;;;8331320;28;20046;-89
2023/07/21 21:16:25;;;;;;;6.82;5.32;;;;;;;;;;8337199;28;20511;-87
2023/07/21 21:20:28;;;;;;;10.27;5.70;;;;;;;;;;8324076;28;20052;-87
2023/07/21 21:24:31;;;;;;;8.18;6.00;;;;;;;;;;8350879;28;20636;-88
2023/07/21 21:28:34;;;;;;;7.95;6.28;;;;;;;;;;8349953;28;20544;-89
2023/07/21 21:32:38;;;;;;;8.23;5.65;;;;;;;;;;8323309;28;20064;-88
2023/07/21 21:36:41;;;;;;;9.63;6.05;;;;;;;;;;8323560;28;20111;-88
2023/07/21 21:40:44;;;;;;;9.90;5.95;;;;;;;;;;8335829;28;20054;-88
2023/07/21 21:44:47;;;;;;;10.65;5.97;;;;;;;;;;8328486;28;20045;-87
2023/07/21 21:48:51;;;;;;;8.35;6.03;;;;;;;;;;8329106;28;20058;-87
2023/07/21 21:52:54;;;;;;;9.02;6.05;;;;;;;;;;8328844;28;20046;-88
2023/07/21 21:56:57;;;;;;;7.93;6.15;;;;;;;;;;8328659;28;20050;-87
2023/07/21 22:01:02;;;;;;;8.85;6.43;;;;;;;;;;8329010;28;20045;-87
2023/07/21 22:05:07;;;;;;;9.95;6.18;;;;;;;;;;8328516;28;20049;-87
2023/07/21 22:09:11;;;;;;;7.50;5.90;;;;;;;;;;8328554;28;20261;-88
2023/07/21 22:13:14;;;;;;;10.95;6.65;;;;;;;;;;8328562;28;20619;-88
2023/07/21 22:17:17;;;;;;;10.23;6.47;;;;;;;;;;8328310;28;20125;-88
2023/07/21 22:21:21;;;;;;;11.85;6.70;;;;;;;;;;8342015;28;20541;-88
2023/07/21 22:25:24;;;;;;;10.88;6.43;;;;;;;;;;8361026;28;20049;-88
2023/07/21 22:29:28;;;;;;;9.85;6.63;;;;;;;;;;8347282;28;20052;-89
2023/07/21 22:33:31;;;;;;;10.70;6.20;;;;;;;;;;8339960;28;20049;-88
2023/07/21 22:37:36;;;;;;;8.65;6.00;;;;;;;;;;8340765;28;20053;-88
2023/07/21 22:41:39;;;;;;;8.60;6.10;;;;;;;;;;8327560;28;20046;-89
2023/07/21 22:45:41;;;;;;;8.45;6.32;;;;;;;;;;8340843;28;20449;-89
2023/07/21 22:49:44;;;;;;;8.05;6.25;;;;;;;;;;8327537;28;20053;-88
2023/07/21 22:53:49;;;;;;;9.02;6.65;;;;;;;;;;8326997;28;20056;-88
2023/07/21 22:57:52;;;;;;;7.70;5.97;;;;;;;;;;8328094;28;20522;-88
2023/07/21 23:01:55;;;;;;;8.02;6.45;;;;;;;;;;8329571;28;20124;-88
2023/07/21 23:05:58;;;;;;;10.50;7.13;;;;;;;;;;8360359;28;20049;-89
2023/07/21 23:10:02;;;;;;;10.13;6.57;;;;;;;;;;8332094;28;20046;-88
2023/07/21 23:14:05;;;;;;;9.45;6.88;;;;;;;;;;8326830;28;20045;-88
2023/07/21 23:18:08;;;;;;;9.13;7.38;;;;;;;;;;8327455;28;20049;-87
2023/07/21 23:22:11;;;;;;;11.13;8.35;;;;;;;;;;8339062;28;20496;-88
2023/07/21 23:26:15;;;;;;;11.75;8.63;;;;;;;;;;8326304;28;20509;-87
2023/07/21 23:30:18;;;;;;;13.80;8.52;;;;;;;;;;8326438;28;20052;-86
2023/07/21 23:34:21;;;;;;;13.35;8.95;;;;;;;;;;8326070;28;20494;-87
2023/07/21 23:38:24;;;;;;;12.15;9.45;;;;;;;;;;8326280;28;20160;-88
2023/07/21 23:42:28;;;;;;;15.02;8.73;;;;;;;;;;8325639;28;20045;-86
2023/07/21 23:46:31;;;;;;;12.65;9.02;;;;;;;;;;8338788;28;20101;-87
2023/07/21 23:50:34;;;;;;;17.73;9.45;;;;;;;;;;8332536;28;20049;-87
2023/07/21 23:54:36;;;;;;;14.13;9.90;;;;;;;;;;8338754;28;20037;-87
2023/07/21 23:58:41;;;;;;;14.60;8.88;;;;;;;;;;8326016;28;20408;-87
